• Join FlightAware (Why Join?)
  • Login
  • US Flag 
11:22PM EDT


 

Airport Tracker/Info


-or-


 

Live Flight TrackerFlight Track Log ✈ EMD21 ✈ 16-Jun-2013 ✈ KMLC - KPNC

Flight Track Log - Related Links

Times and Time Zones

All times are in EDT time to prevent confusion due to time zone crossing. See the EMD21 flight status page for this flight to view local times or setup timezone preferences in your user account.

Time Position Orientation Groundspeed Altitude Reporting Facility
EDT Latitude Longitude Course Direction KTS MPH feet Rate Location/Type
03:12AM 34.9522 -95.7969 331° Northwest 166 191 3,100  Level Kansas City Center
03:12AM 34.9789 -95.8119 335° Northwest 212 244 4,000 1,260 Climbing Fort Worth Center
03:13AM 35.0147 -95.8392 328° Northwest 172 198 5,100 1,200 Climbing Fort Worth Center
03:14AM 35.0547 -95.8689 329° Northwest 161 185 6,500 1,320 Climbing Fort Worth Center
03:15AM 35.0883 -95.8936 329° Northwest 156 180 7,800 1,200 Climbing Fort Worth Center
03:16AM 35.1222 -95.9211 326° Northwest 151 174 9,000 1,260 Climbing Fort Worth Center
03:17AM 35.1382 -95.9643 331° Northwest  Level FlightAware Approximate
03:17AM 35.1558 -95.9458 329° Northwest 151 174 10,400  Level Fort Worth Center
03:18AM 35.1917 -95.9731 328° Northwest 151 174 11,400 780 Climbing Fort Worth Center
03:19AM 35.2294 -95.9981 332° Northwest 151 174 12,000 300 Climbing Fort Worth Center
03:20AM 35.2778 -96.0328 330° Northwest 173 199 12,000 60 Level Fort Worth Center
03:21AM 35.3322 -96.0700 331° Northwest 199 229 12,200  Climbing Fort Worth Center
03:22AM 35.3869 -96.1072 331° Northwest 213 245 12,000 -180 Descending Fort Worth Center
03:23AM 35.4119 -96.1172 342° North 223 257 12,000  Level Kansas City Center
03:24AM 35.4706 -96.1675 325° Northwest 217 250 12,000  Level Kansas City Center
03:25AM 35.5222 -96.2036 330° Northwest 215 247 12,000  Level Kansas City Center
03:26AM 35.5753 -96.2381 332° Northwest 215 247 12,000  Level Kansas City Center
03:27AM 35.6272 -96.2783 328° Northwest 220 253 12,000  Level Kansas City Center
03:28AM 35.6778 -96.3183 327° Northwest 217 250 12,000  Level Kansas City Center
03:29AM 35.7306 -96.3533 332° Northwest 217 250 12,000  Level Kansas City Center
03:30AM 35.7825 -96.3903 330° Northwest 217 250 12,000  Level Kansas City Center
03:31AM 35.8328 -96.4314 326° Northwest 217 250 12,000  Level Kansas City Center
03:32AM 35.8856 -96.4686 330° Northwest 218 251 12,000  Level Kansas City Center
03:33AM 35.9383 -96.5036 332° Northwest 217 250 12,000  Level Kansas City Center
03:34AM 35.9881 -96.5450 326° Northwest 216 249 12,000 -180 Level Kansas City Center
03:35AM 36.0406 -96.5822 330° Northwest 217 250 11,700 -480 Descending Kansas City Center
03:36AM 36.0928 -96.6186 331° Northwest 222 255 11,100 -780 Descending Kansas City Center
03:37AM 36.1489 -96.6642 327° Northwest 234 269 10,200 -840 Descending Kansas City Center
03:38AM 36.2086 -96.7028 332° Northwest 239 275 9,500 -900 Descending Kansas City Center
03:39AM 36.2703 -96.7469 330° Northwest 244 281 8,500 -840 Descending Kansas City Center
03:40AM 36.3225 -96.7917 325° Northwest 235 270 7,800 -900 Descending Kansas City Center
03:41AM 36.3761 -96.8297 330° Northwest 226 260 6,800 -1,020 Descending Kansas City Center
03:42AM 36.4297 -96.8706 329° Northwest 226 260 5,900 -840 Descending Kansas City Center
03:43AM 36.4819 -96.9089 329° Northwest 222 255 5,200 -720 Descending Kansas City Center